航空気象通報

ウインドサーファーのための航空気象通報による風予報です。

1/31-2/2の航空気象通報

2014年01月31日 21時37分09秒 | TAF
羽田空港
TAF RJTT 311105Z 3112/0118 35012KT 9999 FEW030
BECMG 3122/3124 10006KT
BECMG 0109/0112 02006KT
日本時間31日21時-1日07時:350度から12ノットの風
07-09時:風が変化
09-18時:100度から6ノットの風
18-21時:風が変化
21時-2日03時:020度から6ノットの風


静岡空港
TAF RJNS 311105Z 3112/0118 27020KT 9999 FEW030
BECMG 3114/3116 30008KT
日本時間31日21-23時:270度から20ノットの風
23時-1日01時:風が変化
01時-2日03時:300度から8ノットの風


福岡空港
TAF RJFF 311106Z 3112/0118 15007KT CAVOK
日本時間31日21時-2日03時:150度から7ノットの風


那覇空港
TAF ROAH 311111Z 3112/0118 12007KT 9999 FEW020
日本時間31日21時-2日03時:120度から7ノットの風


石垣空港
TAF ROIG 311113Z 3112/0118 10010KT 9999 FEW015 SCT025
BECMG 3115/3117 14010KT
BECMG 0112/0115 11005KT
日本時間31日21-24時:100度から10ノットの風
1日00-02時:風が変化
02-21時:140度から10ノットの風
21-24時:風が変化
2日00-03時:110度から5ノットの風


マウイのカフルイ空港
PHOG 311130Z 3112/0112 15005KT P6SM FEW020 SCT045
FM312100 19010KT P6SM FEW020 SCT045
FM010500 VRB05KT P6SM SCT020 SCT045 AMD LTD TO WX VIS AND WIND TIL 311600
ハワイ時間31日02-11時:150度から5ノットの風
11-19時:190度から10ノットの風
19時-1日02時:風向不定5ノットの風


サイパン空港
PGSN 311121Z 3112/0112 09003KT P6SM SCT018
FM010000 08012G20KT P6SM VCSH SCT020
マリアナ時間31日22時-1日10時:090度から3ノットの風
10-22時:080度から12ノット、突風20ノット
コメント
この記事をはてなブックマークに追加

1/30-2/1の航空気象通報

2014年01月30日 23時32分19秒 | TAF

羽田空港
TAF AMD RJTT 301336Z 3013/3118 23008KT 9999 FEW030
BECMG 3015/3017 30008KT
BECMG 3103/3106 36016KT
日本時間30日22-24時:230度から8ノットの風
31日00-02時:風が変化
02-12時:300度から8ノットの風
12-15時:風が変化
15時-1日03時:360度から16ノットの風

静岡空港
TAF RJNS 301107Z 3012/3118 26016KT 8000 FEW010 BKN020
TEMPO 3012/3015 4000 BR FEW003 BKN005
BECMG 3015/3017 26020G30KT
BECMG 3112/3115 28010KT
日本時間30日21-24時:260度から16ノットの風
31日00-02時:風が変化
02-21時:260度から20ノット、突風30ノット
21-24時:風が変化
1日00-03時:280度から10ノットの風

福岡空港
TAF RJFF 301110Z 3012/3118 29008KT 8000 FEW030 SCT045
BECMG 3016/3018 13005KT
TEMPO 3018/3024 4000 BR
BECMG 3100/3103 33006KT
BECMG 3109/3112 13005KT
日本時間30日21時-31日01時:290度から8ノットの風
01-03時:風が変化
03-09時:130度から5ノットの風
09-12時:風が変化
12-18時:330度から6ノットの風
18時-1日03時:130度から5ノットの風

那覇空港
TAF ROAH 301105Z 3012/3118 05004KT 9999 FEW025
BECMG 3103/3106 12007KT
日本時間30日21時-1日12時:050度から4ノットの風
12-15時:風が変化
15時-31日03時:120度から7ノットの風

石垣空港
TAF ROIG 301106Z 3012/3118 05008KT 9999 FEW040
BECMG 3112/3115 14013KT
日本時間30日21時-31日21時:050度から8ノットの風
21-24時:風が変化
1日00-03時:140度から13ノットの風

マウイのカフルイ空港
PHOG 301121Z 3012/3112 VRB04KT P6SM FEW035 SCT070
FM302100 03010KT P6SM FEW045 SCT080
FM310900 VRB04KT P6SM FEW035 SCT070 AMD LTD TO WX VIS AND WIND TIL 301600
ハワイ時間30日02-11時:風向不定4ノットの風
11-18時:030度から10ノットの風
18時-31日02時:風向不定4ノットの風

サイパン空港
PGSN 301120Z 3012/3112 09009KT P6SM VCSH SCT016 SCT030
FM310100 09016G25KT P6SM VCSH SCT020 SCT050
FM310800 08011KT P6SM VCSH SCT018
マリアナ時間30日22時-31日11時:090度から9ノットの風
11-18時:090度から16ノット、突風25ノット
18-22時:080度から11ノットの風

コメント
この記事をはてなブックマークに追加

1/29-1/31の航空気象通報

2014年01月29日 23時43分57秒 | TAF

羽田空港
TAF RJTT 291105Z 2912/3018 14008KT 9999 FEW030 SCT040
     BECMG 2916/2918 28004KT
     BECMG 2922/2924 20020KT
     TEMPO 3003/3012 20024G35KT
     BECMG 3015/3018 26015KT
日本時間29日21時-30日01時:140度から8ノットの風
01-03時:風が変化
03-07時:280度から4ノットの風
07-09時:風が変化
09-24時:200度から20ノットの風
但し、30日12-21時の間:ときどき200度から24ノット、突風35ノット
31日00-03時:風が変化
03時:260度から15ノットの風

静岡空港
TAF RJNS 291106Z 2912/3018 34004KT 9999 FEW030
     BECMG 3003/3006 20006KT 4000 -SHRA BR
     TEMPO 3003/3009 1200 TSRA BR FEW004 BKN008 FEW015CB
     BECMG 3009/3012 26016KT 9999 NSW
     TEMPO 3015/3018 26020G30KT
日本時間29日21時-30日12時:340度から4ノットの風
12-15時:風が変化
15-18時:200度から6ノットの風
18-21時:風が変化
21時-31日03時:260度から16ノットの風
但し、31日00-03時の間:ときどき260度から20ノット、突風30ノット
、30日12-15時の後
30日18-21時の後
但し、30日12-15時の間:ときどき

福岡空港
TAF RJFF 291109Z 2912/3018 15008KT 9999 FEW030
     TEMPO 2918/2924 3000 SHRA BR
     BECMG 3000/3003 28008KT
日本時間29日21時-30日09時:150度から8ノットの風
09-12時:風が変化
12時-31日03時:280度から8ノットの風

但し、30日03-09時の間:ときどき

那覇空港
TAF ROAH 291106Z 2912/3018 20006KT 9999 FEW025 SCT045
     BECMG 3003/3006 01005KT
日本時間29日21時-30日12時:200度から6ノットの風
12-15時:風が変化
15時-31日03時:010度から5ノットの風

石垣空港
TAF ROIG 291109Z 2912/3018 10005KT 9999 FEW035
日本時間29日21時-31日03時:100度から5ノットの風

マウイのカフルイ空港
PHOG 291120Z 2912/3012 04007G12KT P6SM VCSH SCT025 BKN050
     FM291900 04017G26KT P6SM VCSH SCT025 BKN050
     FM300500 05010G16KT P6SM SCT030 BKN050
     FM300700 05008KT P6SM SCT030 SCT050 AMD LTD TO WX VIS AND WIND TIL 291600
ハワイ時間29日02-09時:040度から7ノット、突風12ノット
09-19時:040度から17ノット、突風26ノット
19-21時:050度から10ノット、突風16ノット
21時-30日02時:050度から8ノットの風

サイパン空港
PGSN 291120Z 2912/3012 08012KT P6SM VCSH SCT014 BKN100
マリアナ時間29日22時-30日22時:080度から12ノットの風

コメント
この記事をはてなブックマークに追加

1/28-1/30の航空気象通報

2014年01月28日 21時06分36秒 | TAF
羽田空港
TAF RJTT 281107Z 2812/2918 27006KT 9999 FEW030
BECMG 2813/2815 34020KT
TEMPO 2815/2824 34022G32KT
BECMG 2900/2903 36008KT
BECMG 2903/2906 17010KT
日本時間28日21-22時:270度から6ノットの風
22-24時:風が変化
29日00-09時:340度から20ノットの風
但し、29日00-09時の間:ときどき340度から22ノット、突風32ノット
09-12時:風が変化
12時:360度から8ノットの風
12-15時:風が変化
15時-30日03時:170度から10ノットの風


静岡空港
TAF RJNS 281105Z 2812/2918 27018KT 9999 FEW030
BECMG 2822/2824 27008KT
BECMG 2900/2903 18006KT
BECMG 2909/2912 32006KT
日本時間28日21時-29日07時:270度から18ノットの風
07-09時:風が変化
09時:270度から8ノットの風
09-12時:風が変化
12-18時:180度から6ノットの風
18-21時:風が変化
21時-30日03時:320度から6ノットの風


福岡空港
TAF RJFF 281109Z 2812/2918 34005KT 9999 FEW030 SCT040
BECMG 2816/2818 14007KT
日本時間28日21時-29日01時:340度から5ノットの風
01-03時:風が変化
03時-30日03時:140度から7ノットの風


那覇空港
TAF ROAH 281106Z 2812/2918 10005KT 9999 FEW040
日本時間28日21時-30日03時:100度から5ノットの風


石垣空港
TAF ROIG 281108Z 2812/2918 10010KT 9999 FEW035 SCT045
日本時間28日21時-30日03時:100度から10ノットの風


マウイのカフルイ空港
PHOG 281120Z 2812/2912 06008KT P6SM VCSH SCT035 OVC040
FM281600 05012KT P6SM VCSH SCT025 BKN040
FM282300 04018KT P6SM VCSH SCT030 BKN050 AMD LTD TO WX VIS AND WIND TIL 281600
ハワイ時間28日02-06時:060度から8ノットの風
06-13時:050度から12ノットの風
13時-29日02時:040度から18ノットの風


サイパン空港
PGSN 281120Z 2812/2912 05013G20KT P6SM VCSH SCT015 SCT035 BKN120
FM282300 07015G22KT P6SM VCSH SCT018 SCT050 SCT120
FM290900 07012KT P6SM VCSH SCT018 SCT050
マリアナ時間28日22時-29日09時:050度から13ノット、突風20ノット

09-19時:070度から15ノット、突風22ノット
19-22時:070度から12ノットの風
コメント
この記事をはてなブックマークに追加

1/27-1/29の航空気象通報

2014年01月27日 21時03分57秒 | TAF
羽田空港
TAF RJTT 271115Z 2712/2818 20012KT 9999 FEW030 BKN050
BECMG 2722/2724 22022KT
TEMPO 2800/2809 22024G34KT
BECMG 2812/2815 34020G32KT
日本時間27日21時-28日07時:200度から12ノットの風
07-09時:風が変化
09-21時:220度から22ノットの風
但し、28日09-18時の間:ときどき220度から24ノット、突風34ノット
21-24時:風が変化
29日00-03時:340度から20ノット、突風32ノット


静岡空港
TAF RJNS 271110Z 2712/2818 28006KT 9999 FEW030
BECMG 2722/2724 27016KT
TEMPO 2800/2806 26022G32KT
日本時間27日21時-28日07時:280度から6ノットの風
07-09時:風が変化
09時-29日03時:270度から16ノットの風
但し、28日09-15時の間:ときどき
260度から22ノット、突風32ノット


福岡空港
TAF RJFF 271106Z 2712/2818 15005KT 9999 FEW040
BECMG 2803/2806 30006KT
BECMG 2815/2818 14004KT
日本時間27日21時-28日12時:150度から5ノットの風
12-15時:風が変化
15-24時:300度から6ノットの風
29日00-03時:風が変化
03時:140度から4ノットの風


那覇空港
TAF ROAH 271105Z 2712/2818 08006KT 9999 FEW030 SCT045
BECMG 2721/2723 10007KT
日本時間27日21時-28日06時:080度から6ノットの風
06-08時:風が変化
08時-29日03時:100度から7ノットの風


石垣空港
TAF ROIG 271107Z 2712/2818 05008KT 9999 FEW030 SCT045
日本時間27日21時-29日03時:050度から8ノットの風


マウイのカフルイ空港
PHOG 271120Z 2712/2812 01010KT 6SM -RA BR SCT010 OVC015
TEMPO 2712/2716 3SM -SHRA BR BKN008
FM271600 02008KT P6SM VCSH SCT025 BKN040
FM272100 03012KT P6SM VCSH SCT030 BKN050
FM280500 04010KT P6SM VCSH SCT030 BKN050 AMD LTD TO WX VIS AND WIND TIL 271600
ハワイ時間27日02-06時:010度から10ノットの風
06-11時:020度から8ノットの風

11-19時:030度から13ノットの風
19時-28日02時:040度から10ノットの風


サイパン空港
PGSN 271127Z 2712/2812 02011KT P6SM VCSH SCT010CB OVC030
TEMPO 2712/2715 VRB15G22KT 1SM TSRA SCT005CB OVC010
FM272300 05013KT P6SM VCSH SCT015CB BKN040 BKN120
マリアナ時間27日22時-28日09時:020度から11ノットの風
但し、27日22時-28日01時の間:ときどき風向不定15ノット、突風22ノット
コメント
この記事をはてなブックマークに追加